Time;durP1;ratioP1;P1;durP2;ratioP2;P2;SDS_P1;SDS_P2;PMS_P1;PMS_P2;Temp;Humidity;BMP_temperature;BMP_pressure;BME280_temperature;BME280_humidity;BME280_pressure;Samples;Min_cycle;Max_cycle;Signal;HPM_P1;HPM_P2
2023/04/10 00:00:47;;;;;;;10.90;9.30;;;;;;;8.10;62.23;96279.44;6220889;23;20178;-85
2023/04/10 00:03:13;;;;;;;9.10;8.20;;;;;;;7.89;62.67;96278.88;6220999;23;20208;-86
2023/04/10 00:05:42;;;;;;;9.47;8.57;;;;;;;7.92;62.46;96265.78;6221892;23;20197;-85
2023/04/10 00:08:12;;;;;;;9.07;8.17;;;;;;;8.02;62.06;96276.81;6221229;23;20177;-85
2023/04/10 00:10:40;;;;;;;8.67;7.77;;;;;;;8.06;61.97;96272.22;6220563;23;20174;-87
2023/04/10 00:13:08;;;;;;;9.50;8.50;;;;;;;8.05;61.98;96273.97;6220592;23;20583;-86
2023/04/10 00:15:38;;;;;;;9.63;8.00;;;;;;;8.04;61.63;96274.91;6221115;23;20178;-87
2023/04/10 00:18:04;;;;;;;12.70;8.93;;;;;;;8.01;61.52;96272.63;6219993;23;20253;-86
2023/04/10 00:20:31;;;;;;;9.03;8.13;;;;;;;7.84;61.71;96270.84;6220652;23;20177;-85
2023/04/10 00:22:57;;;;;;;10.93;9.33;;;;;;;7.88;61.55;96264.47;6220225;23;20738;-86
2023/04/10 00:25:26;;;;;;;9.17;8.27;;;;;;;7.96;61.40;96257.66;6220056;23;20235;-87
2023/04/10 00:27:54;;;;;;;8.50;7.57;;;;;;;8.04;61.53;96251.84;6220754;23;20769;-86
2023/04/10 00:30:26;;;;;;;8.73;7.87;;;;;;;8.00;60.92;96249.69;6219640;23;20178;-86
2023/04/10 00:32:52;;;;;;;9.10;8.20;;;;;;;7.95;61.27;96244.97;6220824;23;20251;-85
2023/04/10 00:35:22;;;;;;;14.70;12.90;;;;;;;7.96;61.29;96242.28;6221711;23;20182;-86
2023/04/10 00:37:56;;;;;;;9.23;8.33;;;;;;;8.00;61.13;96237.69;6220948;23;20212;-86
2023/04/10 00:40:26;;;;;;;8.50;7.50;;;;;;;7.92;61.32;96235.81;6219790;23;20203;-85
2023/04/10 00:42:54;;;;;;;8.20;7.40;;;;;;;7.93;61.25;96242.56;6219815;23;20248;-86
2023/04/10 00:45:22;;;;;;;8.47;7.67;;;;;;;7.97;60.82;96235.41;6219956;23;20232;-86
2023/04/10 00:47:48;;;;;;;8.50;7.53;;;;;;;7.86;60.87;96243.31;6220944;23;20174;-86
2023/04/10 00:50:15;;;;;;;8.03;7.23;;;;;;;7.81;61.31;96242.91;6219937;23;20177;-86
2023/04/10 00:52:50;;;;;;;8.47;7.67;;;;;;;7.77;61.86;96234.69;6220399;23;20193;-85
2023/04/10 00:55:20;;;;;;;7.93;7.00;;;;;;;7.52;61.80;96236.16;6220286;23;20161;-86
2023/04/10 00:57:47;;;;;;;9.40;6.77;;;;;;;7.57;62.20;96233.19;6220541;23;20185;-86
2023/04/10 01:00:17;;;;;;;7.83;7.03;;;;;;;7.59;61.82;96233.84;6221400;23;20591;-86
2023/04/10 01:02:44;;;;;;;7.87;6.90;;;;;;;7.66;62.29;96232.34;6220332;23;20200;-85
2023/04/10 01:05:12;;;;;;;8.23;7.43;;;;;;;7.76;62.15;96235.66;6221667;23;20195;-88
2023/04/10 01:07:53;;;;;;;7.90;7.10;;;;;;;7.75;61.59;96228.09;6221439;23;20200;-88
2023/04/10 01:10:29;;;;;;;8.30;7.50;;;;;;;7.81;61.50;96230.09;6221432;23;20164;-85
2023/04/10 01:13:07;;;;;;;7.70;6.90;;;;;;;7.82;61.56;96231.72;6222414;23;20277;-86
2023/04/10 01:15:44;;;;;;;8.13;7.33;;;;;;;7.81;61.71;96230.91;6221337;23;20169;-87
2023/04/10 01:18:18;;;;;;;8.00;7.20;;;;;;;7.80;61.61;96233.59;6221579;23;20157;-85
2023/04/10 01:20:48;;;;;;;7.80;7.00;;;;;;;7.75;61.79;96226.34;6221289;23;20198;-86
2023/04/10 01:23:55;;;;;;;7.87;7.07;;;;;;;7.65;61.67;96227.34;6222184;23;20193;-85
2023/04/10 01:26:42;;;;;;;8.07;7.20;;;;;;;7.58;61.68;96225.34;6220522;23;20197;-86
2023/04/10 01:29:18;;;;;;;7.70;7.00;;;;;;;7.56;61.66;96222.13;6221300;23;20181;-85
2023/04/10 01:31:55;;;;;;;7.93;7.13;;;;;;;7.56;61.96;96229.00;6222386;23;20191;-85
2023/04/10 01:34:25;;;;;;;7.43;6.67;;;;;;;7.45;62.29;96218.94;6217090;23;20223;-87
2023/04/10 01:37:02;;;;;;;7.53;6.83;;;;;;;7.39;62.65;96217.75;6221014;23;20165;-86
2023/04/10 01:39:41;;;;;;;7.47;6.77;;;;;;;7.28;62.32;96216.19;6221620;23;20598;-86
2023/04/10 01:42:13;;;;;;;8.23;6.93;;;;;;;6.89;63.69;96215.50;6223291;23;20432;-86
2023/04/10 01:44:46;;;;;;;8.23;7.03;;;;;;;6.57;64.64;96214.97;6224963;23;20174;-87
2023/04/10 01:47:18;;;;;;;7.10;6.40;;;;;;;6.68;64.38;96208.91;6223329;23;20182;-89
2023/04/10 01:49:50;;;;;;;7.17;6.47;;;;;;;6.80;63.91;96211.19;6223260;23;20166;-89
2023/04/10 01:52:21;;;;;;;7.00;6.30;;;;;;;6.98;63.54;96206.16;6223552;23;20166;-88
2023/04/10 01:54:48;;;;;;;7.67;6.20;;;;;;;7.08;63.71;96208.69;6224362;23;20204;-86
2023/04/10 01:57:16;;;;;;;6.47;5.80;;;;;;;7.09;63.05;96206.00;6223792;23;20433;-87
2023/04/10 01:59:47;;;;;;;7.67;6.37;;;;;;;6.97;63.22;96198.59;6223100;23;20209;-88
2023/04/10 02:02:14;;;;;;;7.00;6.30;;;;;;;7.06;63.17;96203.72;6222637;23;20177;-89
2023/04/10 02:04:41;;;;;;;6.57;5.97;;;;;;;7.14;62.60;96193.56;6223491;23;20178;-85
2023/04/10 02:07:20;;;;;;;6.63;6.03;;;;;;;7.24;62.34;96204.59;6223729;23;20197;-88
2023/04/10 02:09:57;;;;;;;9.27;6.37;;;;;;;7.25;62.84;96203.66;6223646;23;20176;-88
2023/04/10 02:12:30;;;;;;;6.70;6.10;;;;;;;7.24;62.77;96202.03;6222980;23;20253;-88
2023/04/10 02:15:01;;;;;;;7.43;6.57;;;;;;;7.10;62.74;96201.69;6223177;23;20154;-87
2023/04/10 02:17:29;;;;;;;8.47;6.50;;;;;;;7.03;63.11;96206.56;6223205;23;20185;-88
2023/04/10 02:19:58;;;;;;;6.87;6.17;;;;;;;6.65;63.86;96209.19;6223143;23;20185;-87
2023/04/10 02:22:25;;;;;;;6.67;5.97;;;;;;;6.71;63.95;96200.97;6223542;23;20197;-88
2023/04/10 02:24:52;;;;;;;6.77;6.17;;;;;;;6.70;63.89;96201.91;6222322;23;20254;-87
2023/04/10 02:27:29;;;;;;;6.27;5.67;;;;;;;6.63;63.51;96199.09;6221790;23;20220;-88
2023/04/10 02:29:56;;;;;;;6.63;5.93;;;;;;;6.66;63.53;96196.25;6224331;23;20161;-85
2023/04/10 02:32:24;;;;;;;6.30;5.70;;;;;;;6.62;63.53;96202.59;6222461;23;20215;-88
2023/04/10 02:34:50;;;;;;;6.10;5.50;;;;;;;6.59;63.51;96202.84;6223384;23;20179;-88
2023/04/10 02:37:17;;;;;;;6.53;5.93;;;;;;;6.62;63.37;96200.03;6223106;23;20252;-86
2023/04/10 02:39:44;;;;;;;6.43;5.80;;;;;;;6.68;63.67;96203.81;6222823;23;20212;-87
2023/04/10 02:42:18;;;;;;;7.10;6.03;;;;;;;6.80;63.50;96207.81;6221796;23;20182;-86
2023/04/10 02:44:48;;;;;;;6.37;5.63;;;;;;;6.84;62.92;96211.72;6222682;23;20161;-85
2023/04/10 02:47:17;;;;;;;6.27;5.63;;;;;;;6.85;62.67;96208.22;6222475;23;20259;-86
2023/04/10 02:49:47;;;;;;;6.57;5.87;;;;;;;6.75;62.79;96213.34;6223026;23;20185;-87
2023/04/10 02:52:18;;;;;;;6.23;5.53;;;;;;;6.67;62.77;96210.66;6221558;23;20513;-86
2023/04/10 02:54:47;;;;;;;6.20;5.60;;;;;;;6.55;63.05;96221.97;6223460;23;20158;-88
2023/04/10 02:57:16;;;;;;;6.10;5.50;;;;;;;6.41;63.88;96212.16;6222894;23;20178;-88
2023/04/10 02:59:43;;;;;;;6.20;5.60;;;;;;;6.47;63.93;96206.50;6223289;23;20200;-86
2023/04/10 03:02:10;;;;;;;6.67;5.83;;;;;;;6.39;63.48;96208.94;6222070;23;20208;-87
2023/04/10 03:04:36;;;;;;;5.87;5.27;;;;;;;6.34;63.59;96204.25;6223048;23;20184;-85
2023/04/10 03:07:07;;;;;;;5.70;5.07;;;;;;;6.38;63.72;96207.31;6222862;23;20193;-87
2023/04/10 03:09:34;;;;;;;6.10;5.50;;;;;;;6.08;64.67;96208.25;6222194;23;20162;-88
2023/04/10 03:12:05;;;;;;;6.83;5.73;;;;;;;6.07;65.14;96201.53;6223144;23;20182;-86
2023/04/10 03:14:32;;;;;;;6.90;5.93;;;;;;;6.08;64.79;96206.50;6222771;23;20154;-85
2023/04/10 03:16:59;;;;;;;6.03;5.43;;;;;;;6.10;65.16;96201.25;6221998;23;20369;-88
2023/04/10 03:19:26;;;;;;;6.30;5.70;;;;;;;6.20;64.25;96200.31;6223111;23;20178;-85
2023/04/10 03:21:55;;;;;;;5.97;5.37;;;;;;;6.24;63.87;96195.75;6222633;23;20178;-86
2023/04/10 03:24:25;;;;;;;6.03;5.43;;;;;;;6.17;64.37;96200.59;6221688;23;20205;-87
2023/04/10 03:26:52;;;;;;;6.60;5.53;;;;;;;6.14;64.23;96198.31;6222334;23;20177;-88
2023/04/10 03:29:19;;;;;;;6.43;5.53;;;;;;;6.15;64.20;96199.94;6222181;23;20174;-86
2023/04/10 03:31:46;;;;;;;6.73;6.03;;;;;;;6.05;64.32;96199.09;6222694;23;20182;-87
2023/04/10 03:34:12;;;;;;;6.97;6.27;;;;;;;6.06;64.41;96203.28;6222247;23;20193;-87
2023/04/10 03:36:39;;;;;;;6.37;5.77;;;;;;;6.06;64.24;96205.84;6223496;23;20197;-87
2023/04/10 03:39:06;;;;;;;6.63;5.67;;;;;;;6.11;64.11;96203.69;6222363;23;20184;-87
2023/04/10 03:41:36;;;;;;;6.90;5.93;;;;;;;6.14;64.32;96202.63;6222008;23;20174;-87
2023/04/10 03:44:03;;;;;;;6.43;5.80;;;;;;;6.17;64.15;96202.34;6221963;23;20255;-85
2023/04/10 03:46:29;;;;;;;6.13;5.30;;;;;;;6.10;64.55;96203.81;6221814;23;20188;-86
2023/04/10 03:48:56;;;;;;;6.47;5.40;;;;;;;6.00;64.84;96203.00;6221068;23;20181;-86
2023/04/10 03:51:23;;;;;;;6.20;5.40;;;;;;;6.11;64.41;96205.44;6222460;23;20223;-86
2023/04/10 03:53:55;;;;;;;6.20;5.60;;;;;;;6.15;64.40;96210.16;6221513;23;20201;-85
2023/04/10 03:56:23;;;;;;;6.67;5.33;;;;;;;6.15;64.25;96207.59;6222662;23;20177;-84
2023/04/10 03:58:53;;;;;;;6.70;6.00;;;;;;;6.08;63.98;96213.38;6221846;23;20191;-88
2023/04/10 04:01:22;;;;;;;7.53;5.27;;;;;;;5.98;64.40;96212.53;6221012;23;20162;-86
2023/04/10 04:03:49;;;;;;;5.97;5.37;;;;;;;5.87;64.99;96218.56;6221860;23;20197;-87
2023/04/10 04:06:16;;;;;;;5.93;5.27;;;;;;;5.91;64.99;96217.38;6222629;23;20188;-86
2023/04/10 04:08:42;;;;;;;6.50;5.70;;;;;;;5.74;65.28;96215.44;6221941;23;20200;-86
2023/04/10 04:11:10;;;;;;;6.73;5.80;;;;;;;5.64;66.06;96214.59;6221664;23;20174;-88
2023/04/10 04:13:42;;;;;;;6.33;5.30;;;;;;;5.52;66.48;96208.78;6221858;23;20240;-85
2023/04/10 04:16:15;;;;;;;7.10;5.40;;;;;;;5.45;67.21;96205.13;6222505;23;20235;-87
2023/04/10 04:18:42;;;;;;;7.23;6.10;;;;;;;5.38;67.52;96204.06;6221444;23;20228;-88
2023/04/10 04:21:10;;;;;;;5.80;5.20;;;;;;;5.37;67.66;96205.78;6222086;23;20174;-87
2023/04/10 04:23:37;;;;;;;6.30;5.70;;;;;;;5.27;67.94;96204.94;6221941;23;20216;-86
2023/04/10 04:26:06;;;;;;;6.60;5.50;;;;;;;5.30;67.92;96204.69;6222014;23;20174;-87
2023/04/10 04:28:40;;;;;;;5.73;5.03;;;;;;;5.13;69.33;96210.38;6221338;23;20221;-88
2023/04/10 04:31:07;;;;;;;6.60;5.77;;;;;;;4.96;70.21;96210.97;6222561;23;20228;-88
2023/04/10 04:33:35;;;;;;;7.13;5.97;;;;;;;4.99;70.14;96215.84;6221379;23;20292;-87
2023/04/10 04:36:02;;;;;;;6.50;5.83;;;;;;;4.99;69.95;96218.38;6221054;23;20174;-87
2023/04/10 04:38:30;;;;;;;7.17;5.83;;;;;;;5.09;70.07;96219.22;6221185;23;20235;-86
2023/04/10 04:40:56;;;;;;;6.20;5.60;;;;;;;5.01;70.45;96221.59;6221628;23;20170;-87
2023/04/10 04:43:23;;;;;;;6.93;6.07;;;;;;;5.05;74.51;96223.78;6219907;23;20235;-88
2023/04/10 04:45:58;;;;;;;8.27;5.83;;;;;;;5.91;76.82;96237.03;6210989;23;20404;-88
2023/04/10 04:48:37;;;;;;;8.17;5.87;;;;;;;6.64;73.73;96233.16;6209956;23;20181;-89
2023/04/10 04:51:08;;;;;;;8.37;6.93;;;;;;;6.55;66.26;96229.66;6222504;23;20462;-88
2023/04/10 04:53:37;;;;;;;8.17;6.17;;;;;;;6.34;66.18;96234.94;6221266;23;20228;-88
2023/04/10 04:56:10;;;;;;;7.37;6.20;;;;;;;6.20;66.42;96220.78;6222963;23;20185;-89
2023/04/10 04:58:37;;;;;;;6.40;5.70;;;;;;;6.14;66.73;96225.63;6221620;23;20177;-88
2023/04/10 05:01:03;;;;;;;7.07;6.37;;;;;;;5.97;67.07;96227.06;6221707;23;20169;-87
2023/04/10 05:03:33;;;;;;;7.00;6.30;;;;;;;5.98;66.96;96222.75;6222016;23;20207;-86
2023/04/10 05:06:04;;;;;;;6.37;5.77;;;;;;;5.85;67.50;96228.09;6222903;23;20170;-85
2023/04/10 05:08:31;;;;;;;7.23;6.30;;;;;;;5.80;67.73;96231.03;6222375;23;20213;-86
2023/04/10 05:10:57;;;;;;;6.97;6.27;;;;;;;5.81;67.45;96229.28;6222741;23;20183;-87
2023/04/10 05:13:27;;;;;;;7.80;6.50;;;;;;;5.70;68.02;96234.53;6223192;23;20225;-88
2023/04/10 05:15:58;;;;;;;7.13;6.43;;;;;;;5.71;68.24;96236.94;6222966;23;20237;-85
2023/04/10 05:18:37;;;;;;;6.87;6.13;;;;;;;5.65;68.38;96229.00;6225494;23;20161;-88
2023/04/10 05:21:14;;;;;;;7.57;6.10;;;;;;;5.54;68.75;96229.91;6224669;23;20174;-87
2023/04/10 05:23:44;;;;;;;6.47;5.87;;;;;;;5.41;69.15;96219.09;6224732;23;20193;-85
2023/04/10 05:26:19;;;;;;;7.00;6.30;;;;;;;5.35;69.46;96217.06;6224901;23;20243;-86
2023/04/10 05:28:50;;;;;;;6.40;5.70;;;;;;;5.34;69.95;96216.25;6224350;23;20232;-86
2023/04/10 05:31:17;;;;;;;7.40;6.43;;;;;;;5.39;69.61;96223.50;6224570;23;20161;-84
2023/04/10 05:33:48;;;;;;;7.43;6.37;;;;;;;5.27;70.13;96227.09;6222516;23;20692;-86
2023/04/10 05:36:33;;;;;;;6.90;6.20;;;;;;;5.41;69.76;96227.56;6224037;23;20639;-87
2023/04/10 05:38:59;;;;;;;7.80;6.00;;;;;;;5.43;69.86;96235.09;6223244;23;20157;-85
2023/04/10 05:41:26;;;;;;;7.17;6.20;;;;;;;5.50;69.83;96236.19;6223957;23;20336;-87
2023/04/10 05:44:00;;;;;;;6.70;5.87;;;;;;;5.49;69.47;96237.94;6222359;23;20197;-85
2023/04/10 05:46:30;;;;;;;6.67;5.97;;;;;;;5.44;69.55;96236.72;6224194;23;20158;-88
2023/04/10 05:48:58;;;;;;;6.73;6.03;;;;;;;5.45;69.54;96233.22;6222959;23;20190;-86
2023/04/10 05:51:34;;;;;;;6.60;5.83;;;;;;;5.58;69.39;96241.47;6222960;23;20205;-86
2023/04/10 05:54:04;;;;;;;7.77;6.27;;;;;;;5.63;69.44;96244.44;6222630;23;20221;-85
2023/04/10 05:56:34;;;;;;;7.10;5.90;;;;;;;5.73;68.75;96247.84;6223486;23;20207;-85
2023/04/10 05:59:06;;;;;;;8.47;5.27;;;;;;;5.73;68.62;96252.97;6223194;23;20182;-86
2023/04/10 06:01:48;;;;;;;6.73;6.03;;;;;;;5.76;68.75;96255.25;6220148;23;20177;-85
2023/04/10 06:04:16;;;;;;;7.17;6.47;;;;;;;5.73;68.86;96264.94;6223290;23;20201;-86
2023/04/10 06:06:44;;;;;;;6.80;6.10;;;;;;;5.96;68.11;96265.56;6221793;23;20173;-86
2023/04/10 06:09:11;;;;;;;7.97;6.37;;;;;;;6.14;67.21;96262.22;6218667;23;20470;-85
2023/04/10 06:11:42;;;;;;;6.83;6.10;;;;;;;6.26;66.92;96260.34;6221902;23;20177;-85
2023/04/10 06:14:12;;;;;;;7.10;5.97;;;;;;;6.44;66.59;96261.31;6219914;23;20197;-88
2023/04/10 06:16:42;;;;;;;6.93;6.23;;;;;;;6.42;66.41;96267.50;6221124;23;20178;-88
2023/04/10 06:19:08;;;;;;;6.57;5.90;;;;;;;6.50;66.30;96260.78;6221358;23;20177;-85
2023/04/10 06:21:35;;;;;;;7.47;6.30;;;;;;;6.67;65.67;96266.97;6223101;23;20197;-86
2023/04/10 06:24:05;;;;;;;6.47;5.77;;;;;;;6.83;65.61;96261.28;6221533;23;20201;-86
2023/04/10 06:26:46;;;;;;;7.40;6.23;;;;;;;6.84;65.80;96262.91;6220419;23;20197;-87
2023/04/10 06:29:13;;;;;;;7.80;6.80;;;;;;;6.84;65.98;96252.66;6220521;23;20178;-87
2023/04/10 06:31:43;;;;;;;6.70;5.97;;;;;;;6.87;65.07;96253.22;6222524;23;20177;-86
2023/04/10 06:34:13;;;;;;;7.43;6.67;;;;;;;6.80;65.28;96252.13;6221553;23;20232;-85
2023/04/10 06:36:39;;;;;;;6.43;5.83;;;;;;;6.92;64.45;96242.56;6221662;23;20166;-87
2023/04/10 06:39:07;;;;;;;7.60;6.43;;;;;;;6.93;64.42;96247.50;6219784;23;20173;-85
2023/04/10 06:41:34;;;;;;;6.83;6.13;;;;;;;7.02;64.59;96234.84;6221193;23;20208;-86
2023/04/10 06:44:16;;;;;;;7.57;6.53;;;;;;;7.20;64.53;96236.56;6221111;23;20200;-85
2023/04/10 06:46:43;;;;;;;7.30;6.50;;;;;;;7.32;63.56;96226.94;6222138;23;20223;-87
2023/04/10 06:49:10;;;;;;;6.67;5.97;;;;;;;7.59;63.05;96231.28;6221596;23;20237;-86
2023/04/10 06:51:40;;;;;;;7.43;6.70;;;;;;;7.75;62.64;96231.47;6220871;23;20208;-85
2023/04/10 06:54:23;;;;;;;6.40;5.80;;;;;;;7.88;61.75;96229.38;6220148;23;20192;-86
2023/04/10 06:56:50;;;;;;;6.80;6.10;;;;;;;7.91;61.10;96223.94;6218253;23;20185;-85
2023/04/10 06:59:20;;;;;;;6.90;6.20;;;;;;;7.96;60.84;96221.78;6220193;23;20176;-86
2023/04/10 07:01:48;;;;;;;8.90;6.87;;;;;;;8.19;60.54;96224.72;6220853;23;20258;-86
2023/04/10 07:04:17;;;;;;;6.67;6.00;;;;;;;8.28;59.64;96215.34;6221267;23;20196;-85
2023/04/10 07:06:44;;;;;;;7.17;6.47;;;;;;;8.39;59.22;96220.28;6221743;23;20177;-86
2023/04/10 07:09:12;;;;;;;18.93;14.60;;;;;;;8.50;59.92;96225.19;6219956;23;20273;-87
2023/04/10 07:11:39;;;;;;;9.60;8.40;;;;;;;8.86;59.57;96217.44;6221432;23;20772;-86
2023/04/10 07:14:05;;;;;;;7.00;6.30;;;;;;;8.93;58.16;96218.44;6220501;23;20197;-87
2023/04/10 07:16:32;;;;;;;6.30;5.70;;;;;;;9.12;57.68;96220.81;6220160;23;20232;-86
2023/04/10 07:18:59;;;;;;;7.03;6.33;;;;;;;9.33;55.80;96216.13;6219972;23;20173;-87
2023/04/10 07:21:25;;;;;;;6.90;6.20;;;;;;;9.56;56.59;96213.81;6220843;23;20201;-85
2023/04/10 07:23:52;;;;;;;6.17;5.57;;;;;;;9.60;54.96;96215.13;6220801;23;20204;-85
2023/04/10 07:26:20;;;;;;;6.47;5.87;;;;;;;9.78;54.54;96222.75;6221078;23;20200;-85
2023/04/10 07:28:47;;;;;;;6.10;5.50;;;;;;;9.76;54.09;96221.28;6220954;23;20193;-86
2023/04/10 07:31:16;;;;;;;6.43;5.83;;;;;;;10.00;53.84;96227.31;6221662;23;20193;-84
2023/04/10 07:33:43;;;;;;;6.27;5.67;;;;;;;10.05;53.02;96216.53;6221869;23;20205;-85
2023/04/10 07:36:12;;;;;;;5.77;5.23;;;;;;;10.25;53.44;96215.31;6222084;23;20187;-86
2023/04/10 07:38:39;;;;;;;6.80;5.80;;;;;;;10.41;52.95;96214.53;6221510;23;20174;-84
2023/04/10 07:41:08;;;;;;;6.43;5.80;;;;;;;10.36;52.80;96216.81;6221541;23;20177;-85
2023/04/10 07:43:36;;;;;;;6.90;6.30;;;;;;;10.25;52.82;96223.03;6220257;23;20267;-86
2023/04/10 07:46:08;;;;;;;7.27;5.80;;;;;;;10.37;52.55;96218.41;6221603;23;20228;-85
2023/04/10 07:51:21;;;;;;;7.93;7.13;;;;;;;10.85;51.94;96209.88;6204956;23;20216;-86
2023/04/10 07:53:47;;;;;;;7.50;6.80;;;;;;;11.23;51.53;96210.13;6219918;23;20580;-84
2023/04/10 07:56:17;;;;;;;6.90;6.20;;;;;;;11.21;50.12;96217.22;6220060;23;20177;-85
2023/04/10 07:58:47;;;;;;;5.63;5.13;;;;;;;11.07;49.64;96210.97;6221405;23;20177;-85
2023/04/10 08:01:16;;;;;;;6.33;5.73;;;;;;;11.18;49.58;96218.34;6221117;23;20178;-85
2023/04/10 08:03:47;;;;;;;5.43;4.93;;;;;;;11.46;49.52;96205.06;6221963;23;20205;-86
2023/04/10 08:06:14;;;;;;;5.83;5.30;;;;;;;11.56;48.60;96209.06;6221565;23;20188;-86
2023/04/10 08:08:42;;;;;;;5.70;5.20;;;;;;;11.46;48.54;96194.75;6220553;23;20194;-86
2023/04/10 08:11:23;;;;;;;5.47;4.97;;;;;;;11.47;48.43;96204.91;6220510;23;20200;-85
2023/04/10 08:13:51;;;;;;;5.67;5.17;;;;;;;11.62;48.88;96199.84;6221227;23;20206;-86
2023/04/10 08:16:19;;;;;;;5.50;5.00;;;;;;;11.65;47.76;96200.31;6220166;23;20252;-84
2023/04/10 08:18:48;;;;;;;5.00;4.50;;;;;;;11.80;47.66;96197.88;6220713;23;20560;-88
2023/04/10 08:21:21;;;;;;;5.50;5.00;;;;;;;12.03;46.87;96203.06;6220556;23;20691;-86
2023/04/10 08:23:50;;;;;;;5.80;5.30;;;;;;;12.21;46.45;96197.63;6219835;23;20208;-85
2023/04/10 08:26:18;;;;;;;5.53;5.03;;;;;;;12.26;46.73;96197.94;6221313;23;20174;-85
2023/04/10 08:28:48;;;;;;;4.93;4.53;;;;;;;12.32;45.76;96202.41;6221849;23;20578;-88
2023/04/10 08:31:21;;;;;;;5.33;4.83;;;;;;;12.13;45.71;96205.41;6221685;23;20878;-85
2023/04/10 08:33:50;;;;;;;5.47;4.97;;;;;;;12.36;47.12;96194.13;6222267;23;20201;-85
2023/04/10 08:36:17;;;;;;;6.83;6.23;;;;;;;12.58;46.13;96208.03;6222563;23;20568;-86
2023/04/10 08:38:48;;;;;;;6.07;5.47;;;;;;;12.63;46.30;96192.00;6221966;23;20253;-86
2023/04/10 08:41:27;;;;;;;5.10;4.67;;;;;;;12.48;45.45;96191.16;6221948;23;20213;-89
2023/04/10 08:44:24;;;;;;;5.30;4.70;;;;;;;12.90;46.55;96193.22;6192797;23;20202;-88
2023/04/10 08:46:54;;;;;;;5.30;4.80;;;;;;;13.09;45.28;96205.63;6187338;23;20154;-88
2023/04/10 08:49:30;;;;;;;5.30;4.90;;;;;;;13.09;44.39;96195.28;6192608;23;20190;-85
2023/04/10 08:52:02;;;;;;;5.47;5.07;;;;;;;13.40;44.40;96192.59;6193499;23;20225;-86
2023/04/10 08:54:36;;;;;;;5.20;4.80;;;;;;;13.70;44.82;96191.56;6192654;23;20193;-88
2023/04/10 08:57:16;;;;;;;5.90;5.40;;;;;;;13.81;43.59;96190.31;6193502;23;20164;-86
2023/04/10 08:59:44;;;;;;;5.40;5.00;;;;;;;14.01;43.12;96185.38;6193020;23;20169;-87
2023/04/10 09:02:13;;;;;;;5.07;4.67;;;;;;;14.36;42.76;96192.31;6191685;23;20177;-85
2023/04/10 09:04:59;;;;;;;5.68;5.18;;;;;;;14.20;41.94;96182.19;6193780;23;20580;-85
2023/04/10 09:07:27;;;;;;;5.50;5.00;;;;;;;14.11;41.92;96183.28;6192848;23;20162;-88
2023/04/10 09:10:02;;;;;;;5.57;5.07;;;;;;;14.11;42.76;96188.44;6192022;23;20194;-85
2023/04/10 09:12:29;;;;;;;5.40;4.90;;;;;;;14.43;42.20;96182.03;6191968;23;20162;-86
2023/04/10 09:14:57;;;;;;;5.03;4.60;;;;;;;14.75;41.25;96188.50;6193241;23;20189;-86
2023/04/10 09:17:25;;;;;;;4.80;4.40;;;;;;;15.11;39.99;96185.75;6192080;23;20197;-86
2023/04/10 09:19:55;;;;;;;4.72;4.32;;;;;;;15.02;40.78;96174.72;6193510;23;20226;-86
2023/04/10 09:22:32;;;;;;;4.95;4.55;;;;;;;15.02;39.38;96179.09;6192534;23;20154;-87
2023/04/10 09:25:00;;;;;;;6.63;6.07;;;;;;;14.91;39.52;96171.84;6192384;23;20158;-86
2023/04/10 09:27:30;;;;;;;12.57;11.35;;;;;;;14.94;39.64;96169.69;6191791;23;20341;-86
2023/04/10 09:29:56;;;;;;;5.20;4.80;;;;;;;15.01;38.58;96169.75;6191132;23;20194;-85
2023/04/10 09:32:41;;;;;;;4.72;4.32;;;;;;;14.47;38.88;96175.47;6191642;23;20201;-85
2023/04/10 09:35:15;;;;;;;5.30;4.90;;;;;;;14.37;39.42;96167.19;6191667;23;20185;-86
2023/04/10 09:37:45;;;;;;;5.05;4.63;;;;;;;14.59;40.01;96160.25;6190724;23;20202;-86
2023/04/10 09:40:20;;;;;;;5.20;4.80;;;;;;;14.94;40.02;96148.94;6191857;23;20174;-86
2023/04/10 09:42:47;;;;;;;5.35;4.85;;;;;;;15.15;39.60;96142.88;6192090;23;20724;-87
2023/04/10 09:45:18;;;;;;;5.00;4.60;;;;;;;15.42;39.20;96138.63;6192636;23;20165;-86
2023/04/10 09:48:01;;;;;;;4.75;4.35;;;;;;;15.32;39.00;96135.59;6192427;23;20214;-87
2023/04/10 09:50:34;;;;;;;4.97;4.57;;;;;;;15.33;39.40;96127.63;6192992;23;20210;-84
2023/04/10 09:53:04;;;;;;;5.10;4.60;;;;;;;15.52;39.54;96132.09;6186851;23;20208;-85
2023/04/10 09:55:31;;;;;;;5.70;5.20;;;;;;;15.78;38.26;96128.00;6190351;23;20178;-85
2023/04/10 09:58:01;;;;;;;6.05;5.55;;;;;;;15.67;38.26;96133.78;6190817;23;20188;-87
2023/04/10 10:00:28;;;;;;;5.10;4.70;;;;;;;15.39;36.88;96123.47;6191489;23;20249;-86
2023/04/10 10:03:01;;;;;;;4.30;4.00;;;;;;;15.29;37.43;96128.19;6194252;23;20202;-85
2023/04/10 10:05:30;;;;;;;4.97;4.57;;;;;;;15.35;37.40;96111.84;6195819;23;20162;-89
2023/04/10 10:08:00;;;;;;;4.68;4.10;;;;;;;15.73;38.02;96117.41;6194685;23;20178;-89
2023/04/10 10:10:27;;;;;;;4.63;4.22;;;;;;;15.62;37.18;96118.78;6193537;23;20198;-86
2023/04/10 10:13:05;;;;;;;4.78;4.38;;;;;;;15.63;37.78;96110.00;6195042;23;20190;-87
2023/04/10 10:15:40;;;;;;;4.60;4.20;;;;;;;15.61;37.96;96106.78;6195707;23;20165;-84
2023/04/10 10:18:22;;;;;;;4.53;4.13;;;;;;;15.33;37.37;96109.47;6196402;23;20158;-86
2023/04/10 10:20:50;;;;;;;4.30;4.00;;;;;;;15.53;37.68;96104.34;6196361;23;20538;-87
2023/04/10 10:23:22;;;;;;;4.38;4.00;;;;;;;15.44;37.18;96100.31;6194893;23;20250;-86
2023/04/10 10:25:52;;;;;;;4.18;3.83;;;;;;;15.65;36.70;96089.03;6195117;23;20205;-87
2023/04/10 10:28:19;;;;;;;4.47;4.07;;;;;;;15.72;37.39;96089.84;6194288;23;20476;-86
2023/04/10 10:30:53;;;;;;;4.32;3.92;;;;;;;15.45;36.01;96089.72;6194976;23;20181;-86
2023/04/10 10:33:30;;;;;;;4.53;4.13;;;;;;;15.52;36.90;96085.38;6193495;23;20226;-88
2023/04/10 10:36:00;;;;;;;5.22;4.72;;;;;;;16.02;36.68;96082.50;6195218;23;20319;-86
2023/04/10 10:38:27;;;;;;;4.05;3.75;;;;;;;16.37;36.07;96081.34;6193366;23;20162;-86
2023/04/10 10:41:02;;;;;;;4.28;3.97;;;;;;;16.19;35.65;96075.94;6194302;23;20205;-86
2023/04/10 10:43:39;;;;;;;4.25;3.95;;;;;;;16.19;34.95;96078.53;6193352;23;20201;-85
2023/04/10 10:46:17;;;;;;;4.22;3.83;;;;;;;16.05;35.37;96074.34;6195912;23;20154;-86
2023/04/10 10:48:59;;;;;;;4.00;3.70;;;;;;;16.15;35.17;96067.75;6194560;23;20170;-86
2023/04/10 10:51:43;;;;;;;3.65;3.35;;;;;;;16.46;35.29;96061.16;6195718;23;20158;-87
2023/04/10 10:54:33;;;;;;;3.72;3.42;;;;;;;16.62;34.91;96058.13;6194094;23;20256;-87
2023/04/10 10:57:07;;;;;;;4.03;3.72;;;;;;;16.44;34.72;96053.56;6194023;23;20174;-87
2023/04/10 11:00:02;;;;;;;3.83;3.53;;;;;;;16.25;34.62;96049.16;6193162;23;20182;-87
2023/04/10 11:02:29;;;;;;;4.00;3.60;;;;;;;16.61;35.33;96048.72;6193086;23;20209;-88
2023/04/10 11:05:00;;;;;;;4.10;3.80;;;;;;;16.75;33.82;96033.91;6195002;23;20181;-86
2023/04/10 11:08:09;;;;;;;18.35;3.95;;;;;;;16.75;34.35;96031.31;6188216;23;20700;-90
2023/04/10 11:11:04;;;;;;;4.35;3.95;;;;;;;16.62;34.12;96032.13;6186018;23;20188;-87
2023/04/10 11:13:30;;;;;;;3.40;3.20;;;;;;;16.36;33.89;96025.16;6186712;23;20198;-87
2023/04/10 11:16:01;;;;;;;3.83;3.53;;;;;;;16.34;33.60;96027.19;6187190;23;20179;-86
2023/04/10 11:19:01;;;;;;;3.63;3.33;;;;;;;16.42;33.20;96016.56;6185979;23;20162;-88
2023/04/10 11:21:31;;;;;;;3.55;3.25;;;;;;;16.41;32.85;96004.56;6185488;23;20669;-87
2023/04/10 11:24:05;;;;;;;5.22;3.70;;;;;;;16.43;33.06;96009.56;6187758;23;20665;-86
2023/04/10 11:26:41;;;;;;;6.57;3.60;;;;;;;16.61;34.56;96011.53;6188700;23;20250;-86
2023/04/10 11:29:34;;;;;;;3.38;3.10;;;;;;;16.55;32.36;96000.13;6188067;23;20237;-87
2023/04/10 11:32:03;;;;;;;4.68;3.60;;;;;;;16.22;33.09;96008.78;6191121;23;20174;-88
2023/04/10 11:34:52;;;;;;;3.22;3.03;;;;;;;16.40;33.63;96000.38;6193791;23;20190;-89
2023/04/10 11:37:35;;;;;;;3.65;3.35;;;;;;;16.67;33.46;96001.16;6193503;23;20174;-89
2023/04/10 11:46:26;;;;;;;3.10;2.90;;;;;;;16.70;31.40;95995.56;6178950;23;20174;-89
2023/04/10 11:48:53;;;;;;;2.92;2.72;;;;;;;16.60;30.92;95984.72;6193637;23;20162;-90
2023/04/10 11:54:25;;;;;;;3.08;2.78;;;;;;;16.35;30.18;95976.00;6192640;23;20532;-89
2023/04/10 11:57:23;;;;;;;3.22;2.92;;;;;;;16.34;31.12;95975.22;6193716;23;20178;-89
2023/04/10 11:59:55;;;;;;;2.88;2.67;;;;;;;16.47;31.26;95969.19;6192416;23;20256;-87
2023/04/10 12:02:22;;;;;;;3.40;3.10;;;;;;;16.34;31.20;95961.41;6192509;23;20170;-88
2023/04/10 12:05:00;;;;;;;3.72;3.20;;;;;;;16.43;32.05;95967.97;6193196;23;20249;-90
2023/04/10 12:07:28;;;;;;;3.00;2.80;;;;;;;16.34;32.06;95962.22;6194591;23;20150;-88
2023/04/10 12:10:05;;;;;;;3.25;2.95;;;;;;;16.61;32.67;95965.53;6192143;23;20190;-88